sensor_id;sensor_type;location;lat;lon;timestamp;P1;durP1;ratioP1;P2;durP2;ratioP2
3101;SDS011;1561;42.666;23.392;2022-12-07T00:01:56;41.00;;;22.27;;
3101;SDS011;1561;42.666;23.392;2022-12-07T00:04:24;34.37;;;20.63;;
3101;SDS011;1561;42.666;23.392;2022-12-07T00:06:55;37.10;;;21.00;;
3101;SDS011;1561;42.666;23.392;2022-12-07T00:09:27;41.53;;;23.30;;
3101;SDS011;1561;42.666;23.392;2022-12-07T00:11:57;45.40;;;23.70;;
3101;SDS011;1561;42.666;23.392;2022-12-07T00:14:24;36.73;;;20.03;;
3101;SDS011;1561;42.666;23.392;2022-12-07T00:16:54;36.20;;;20.03;;
3101;SDS011;1561;42.666;23.392;2022-12-07T00:19:26;35.07;;;20.20;;
3101;SDS011;1561;42.666;23.392;2022-12-07T00:21:56;34.20;;;19.73;;
3101;SDS011;1561;42.666;23.392;2022-12-07T00:24:31;35.20;;;18.80;;
3101;SDS011;1561;42.666;23.392;2022-12-07T00:27:01;32.83;;;20.07;;
3101;SDS011;1561;42.666;23.392;2022-12-07T00:29:29;28.67;;;18.50;;
3101;SDS011;1561;42.666;23.392;2022-12-07T00:31:57;35.43;;;19.57;;
3101;SDS011;1561;42.666;23.392;2022-12-07T00:34:28;33.90;;;21.10;;
3101;SDS011;1561;42.666;23.392;2022-12-07T00:37:00;39.00;;;20.90;;
3101;SDS011;1561;42.666;23.392;2022-12-07T00:39:29;36.13;;;22.30;;
3101;SDS011;1561;42.666;23.392;2022-12-07T00:42:03;44.47;;;21.50;;
3101;SDS011;1561;42.666;23.392;2022-12-07T00:44:45;35.47;;;22.20;;
3101;SDS011;1561;42.666;23.392;2022-12-07T00:47:14;41.40;;;23.00;;
3101;SDS011;1561;42.666;23.392;2022-12-07T00:49:43;36.37;;;19.90;;
3101;SDS011;1561;42.666;23.392;2022-12-07T00:52:12;31.27;;;21.87;;
3101;SDS011;1561;42.666;23.392;2022-12-07T00:54:41;39.90;;;23.17;;
3101;SDS011;1561;42.666;23.392;2022-12-07T00:57:09;37.37;;;21.90;;
3101;SDS011;1561;42.666;23.392;2022-12-07T00:59:43;37.13;;;23.03;;
3101;SDS011;1561;42.666;23.392;2022-12-07T01:02:15;33.13;;;22.17;;
3101;SDS011;1561;42.666;23.392;2022-12-07T01:04:43;33.83;;;20.37;;
3101;SDS011;1561;42.666;23.392;2022-12-07T01:07:22;39.07;;;23.20;;
3101;SDS011;1561;42.666;23.392;2022-12-07T01:09:49;43.70;;;24.27;;
3101;SDS011;1561;42.666;23.392;2022-12-07T01:12:24;44.67;;;24.53;;
3101;SDS011;1561;42.666;23.392;2022-12-07T01:14:52;38.83;;;23.27;;
3101;SDS011;1561;42.666;23.392;2022-12-07T01:17:19;35.93;;;22.87;;
3101;SDS011;1561;42.666;23.392;2022-12-07T01:19:46;41.63;;;23.17;;
3101;SDS011;1561;42.666;23.392;2022-12-07T01:22:15;47.07;;;24.43;;
3101;SDS011;1561;42.666;23.392;2022-12-07T01:24:49;44.83;;;24.63;;
3101;SDS011;1561;42.666;23.392;2022-12-07T01:27:16;37.73;;;23.20;;
3101;SDS011;1561;42.666;23.392;2022-12-07T01:29:46;39.07;;;22.90;;
3101;SDS011;1561;42.666;23.392;2022-12-07T01:32:14;37.23;;;22.43;;
3101;SDS011;1561;42.666;23.392;2022-12-07T01:34:44;38.13;;;23.93;;
3101;SDS011;1561;42.666;23.392;2022-12-07T01:37:13;35.10;;;21.97;;
3101;SDS011;1561;42.666;23.392;2022-12-07T01:39:40;37.27;;;23.70;;
3101;SDS011;1561;42.666;23.392;2022-12-07T01:48:02;39.83;;;21.43;;
3101;SDS011;1561;42.666;23.392;2022-12-07T01:50:34;38.60;;;24.10;;
3101;SDS011;1561;42.666;23.392;2022-12-07T01:53:14;36.23;;;21.73;;
3101;SDS011;1561;42.666;23.392;2022-12-07T01:55:43;29.43;;;17.53;;
3101;SDS011;1561;42.666;23.392;2022-12-07T01:58:20;31.13;;;17.80;;
3101;SDS011;1561;42.666;23.392;2022-12-07T02:00:48;42.67;;;23.10;;
3101;SDS011;1561;42.666;23.392;2022-12-07T02:03:18;37.67;;;21.93;;
3101;SDS011;1561;42.666;23.392;2022-12-07T02:05:49;33.30;;;19.33;;
3101;SDS011;1561;42.666;23.392;2022-12-07T02:08:20;35.83;;;19.27;;
3101;SDS011;1561;42.666;23.392;2022-12-07T02:10:50;35.30;;;18.10;;
3101;SDS011;1561;42.666;23.392;2022-12-07T02:13:20;27.33;;;16.50;;
3101;SDS011;1561;42.666;23.392;2022-12-07T02:15:55;34.10;;;18.83;;
3101;SDS011;1561;42.666;23.392;2022-12-07T02:18:44;32.70;;;18.63;;
3101;SDS011;1561;42.666;23.392;2022-12-07T02:21:20;35.43;;;19.83;;
3101;SDS011;1561;42.666;23.392;2022-12-07T02:24:14;39.57;;;19.50;;
3101;SDS011;1561;42.666;23.392;2022-12-07T02:30:02;33.70;;;19.70;;
3101;SDS011;1561;42.666;23.392;2022-12-07T02:32:40;34.27;;;21.13;;
3101;SDS011;1561;42.666;23.392;2022-12-07T02:35:15;28.00;;;18.27;;
3101;SDS011;1561;42.666;23.392;2022-12-07T02:37:53;38.27;;;20.97;;
3101;SDS011;1561;42.666;23.392;2022-12-07T02:40:31;32.53;;;19.70;;
3101;SDS011;1561;42.666;23.392;2022-12-07T02:43:17;33.57;;;20.67;;
3101;SDS011;1561;42.666;23.392;2022-12-07T02:45:55;34.87;;;18.23;;
3101;SDS011;1561;42.666;23.392;2022-12-07T02:48:26;34.50;;;18.37;;
3101;SDS011;1561;42.666;23.392;2022-12-07T02:50:58;34.57;;;20.17;;
3101;SDS011;1561;42.666;23.392;2022-12-07T02:53:29;32.33;;;18.20;;
3101;SDS011;1561;42.666;23.392;2022-12-07T02:56:01;36.97;;;20.23;;
3101;SDS011;1561;42.666;23.392;2022-12-07T02:58:38;41.23;;;18.97;;
3101;SDS011;1561;42.666;23.392;2022-12-07T03:01:28;31.73;;;18.93;;
3101;SDS011;1561;42.666;23.392;2022-12-07T03:04:14;35.90;;;19.33;;
3101;SDS011;1561;42.666;23.392;2022-12-07T03:07:06;32.80;;;19.30;;
3101;SDS011;1561;42.666;23.392;2022-12-07T03:09:43;32.67;;;18.67;;
3101;SDS011;1561;42.666;23.392;2022-12-07T03:12:19;34.80;;;18.83;;
3101;SDS011;1561;42.666;23.392;2022-12-07T03:14:53;32.40;;;19.47;;
3101;SDS011;1561;42.666;23.392;2022-12-07T03:17:35;32.47;;;19.03;;
3101;SDS011;1561;42.666;23.392;2022-12-07T03:20:09;31.43;;;18.83;;
3101;SDS011;1561;42.666;23.392;2022-12-07T03:22:41;33.37;;;19.27;;
3101;SDS011;1561;42.666;23.392;2022-12-07T03:25:11;41.60;;;21.80;;
3101;SDS011;1561;42.666;23.392;2022-12-07T03:27:46;36.57;;;18.77;;
3101;SDS011;1561;42.666;23.392;2022-12-07T03:30:22;32.50;;;18.70;;
3101;SDS011;1561;42.666;23.392;2022-12-07T03:32:59;34.50;;;19.03;;
3101;SDS011;1561;42.666;23.392;2022-12-07T03:35:37;29.90;;;17.90;;
3101;SDS011;1561;42.666;23.392;2022-12-07T03:38:13;35.90;;;18.80;;
3101;SDS011;1561;42.666;23.392;2022-12-07T03:40:52;33.40;;;18.53;;
3101;SDS011;1561;42.666;23.392;2022-12-07T03:43:27;36.50;;;19.27;;
3101;SDS011;1561;42.666;23.392;2022-12-07T03:45:59;37.27;;;19.73;;
3101;SDS011;1561;42.666;23.392;2022-12-07T03:48:36;31.90;;;18.80;;
3101;SDS011;1561;42.666;23.392;2022-12-07T03:51:18;45.83;;;20.50;;
3101;SDS011;1561;42.666;23.392;2022-12-07T03:53:52;35.77;;;19.60;;
3101;SDS011;1561;42.666;23.392;2022-12-07T03:56:27;36.10;;;19.90;;
3101;SDS011;1561;42.666;23.392;2022-12-07T03:58:58;36.57;;;19.73;;
3101;SDS011;1561;42.666;23.392;2022-12-07T04:01:29;33.80;;;18.60;;
3101;SDS011;1561;42.666;23.392;2022-12-07T04:04:00;32.57;;;17.90;;
3101;SDS011;1561;42.666;23.392;2022-12-07T04:06:34;33.53;;;17.37;;
3101;SDS011;1561;42.666;23.392;2022-12-07T04:09:03;33.50;;;18.27;;
3101;SDS011;1561;42.666;23.392;2022-12-07T04:11:32;35.67;;;19.73;;
3101;SDS011;1561;42.666;23.392;2022-12-07T04:14:00;30.80;;;18.93;;
3101;SDS011;1561;42.666;23.392;2022-12-07T04:16:47;39.43;;;19.57;;
3101;SDS011;1561;42.666;23.392;2022-12-07T04:19:20;32.23;;;20.23;;
3101;SDS011;1561;42.666;23.392;2022-12-07T04:21:48;40.70;;;23.00;;
3101;SDS011;1561;42.666;23.392;2022-12-07T04:24:21;38.40;;;21.70;;
3101;SDS011;1561;42.666;23.392;2022-12-07T04:26:48;41.00;;;20.93;;
3101;SDS011;1561;42.666;23.392;2022-12-07T04:29:17;38.87;;;18.83;;
3101;SDS011;1561;42.666;23.392;2022-12-07T04:31:52;46.37;;;21.50;;
3101;SDS011;1561;42.666;23.392;2022-12-07T04:34:29;44.00;;;24.20;;
3101;SDS011;1561;42.666;23.392;2022-12-07T04:37:05;35.07;;;18.77;;
3101;SDS011;1561;42.666;23.392;2022-12-07T04:39:36;39.00;;;21.03;;
3101;SDS011;1561;42.666;23.392;2022-12-07T04:42:12;40.60;;;22.37;;
3101;SDS011;1561;42.666;23.392;2022-12-07T04:44:41;38.70;;;20.80;;
3101;SDS011;1561;42.666;23.392;2022-12-07T04:47:11;40.03;;;21.30;;
3101;SDS011;1561;42.666;23.392;2022-12-07T04:52:25;42.50;;;24.23;;
3101;SDS011;1561;42.666;23.392;2022-12-07T04:54:53;45.57;;;22.70;;
3101;SDS011;1561;42.666;23.392;2022-12-07T04:57:24;47.47;;;27.57;;
3101;SDS011;1561;42.666;23.392;2022-12-07T04:59:53;43.47;;;26.27;;
3101;SDS011;1561;42.666;23.392;2022-12-07T05:02:34;46.80;;;25.60;;
3101;SDS011;1561;42.666;23.392;2022-12-07T05:05:03;45.13;;;27.33;;
3101;SDS011;1561;42.666;23.392;2022-12-07T05:07:36;52.33;;;30.00;;
3101;SDS011;1561;42.666;23.392;2022-12-07T05:10:06;47.90;;;28.40;;
3101;SDS011;1561;42.666;23.392;2022-12-07T05:12:37;47.93;;;27.40;;
3101;SDS011;1561;42.666;23.392;2022-12-07T05:15:06;48.63;;;27.30;;
3101;SDS011;1561;42.666;23.392;2022-12-07T05:17:35;55.10;;;30.73;;
3101;SDS011;1561;42.666;23.392;2022-12-07T05:20:08;62.90;;;33.70;;
3101;SDS011;1561;42.666;23.392;2022-12-07T05:22:38;56.60;;;30.40;;
3101;SDS011;1561;42.666;23.392;2022-12-07T05:25:05;56.97;;;29.47;;
3101;SDS011;1561;42.666;23.392;2022-12-07T05:27:34;52.23;;;29.07;;
3101;SDS011;1561;42.666;23.392;2022-12-07T05:30:01;59.23;;;29.07;;
3101;SDS011;1561;42.666;23.392;2022-12-07T05:32:34;56.13;;;29.17;;
3101;SDS011;1561;42.666;23.392;2022-12-07T05:35:04;52.63;;;28.13;;
3101;SDS011;1561;42.666;23.392;2022-12-07T05:37:40;55.97;;;29.10;;
3101;SDS011;1561;42.666;23.392;2022-12-07T05:40:09;52.00;;;28.03;;
3101;SDS011;1561;42.666;23.392;2022-12-07T05:42:43;60.77;;;32.50;;
3101;SDS011;1561;42.666;23.392;2022-12-07T05:45:13;53.10;;;29.67;;
3101;SDS011;1561;42.666;23.392;2022-12-07T05:47:44;73.63;;;31.30;;
3101;SDS011;1561;42.666;23.392;2022-12-07T05:50:15;52.83;;;29.80;;
3101;SDS011;1561;42.666;23.392;2022-12-07T05:52:43;57.57;;;30.87;;
3101;SDS011;1561;42.666;23.392;2022-12-07T05:55:13;55.80;;;30.77;;
3101;SDS011;1561;42.666;23.392;2022-12-07T05:57:45;48.03;;;28.87;;
3101;SDS011;1561;42.666;23.392;2022-12-07T06:00:26;54.30;;;29.67;;
3101;SDS011;1561;42.666;23.392;2022-12-07T06:02:58;55.77;;;31.40;;
3101;SDS011;1561;42.666;23.392;2022-12-07T06:05:30;64.80;;;28.43;;
3101;SDS011;1561;42.666;23.392;2022-12-07T06:07:58;58.43;;;29.17;;
3101;SDS011;1561;42.666;23.392;2022-12-07T06:10:27;53.80;;;28.60;;
3101;SDS011;1561;42.666;23.392;2022-12-07T06:12:57;59.30;;;30.80;;
3101;SDS011;1561;42.666;23.392;2022-12-07T06:15:27;52.83;;;29.03;;
3101;SDS011;1561;42.666;23.392;2022-12-07T06:17:54;53.57;;;30.20;;
3101;SDS011;1561;42.666;23.392;2022-12-07T06:20:26;50.30;;;28.73;;
3101;SDS011;1561;42.666;23.392;2022-12-07T06:23:10;55.17;;;29.67;;
3101;SDS011;1561;42.666;23.392;2022-12-07T06:25:39;57.00;;;31.60;;
3101;SDS011;1561;42.666;23.392;2022-12-07T06:28:17;53.43;;;30.20;;
3101;SDS011;1561;42.666;23.392;2022-12-07T06:30:44;60.77;;;28.30;;
3101;SDS011;1561;42.666;23.392;2022-12-07T06:33:12;48.70;;;29.33;;
3101;SDS011;1561;42.666;23.392;2022-12-07T06:35:41;46.53;;;27.17;;
3101;SDS011;1561;42.666;23.392;2022-12-07T06:38:10;50.50;;;29.63;;
3101;SDS011;1561;42.666;23.392;2022-12-07T06:40:38;62.17;;;33.30;;
3101;SDS011;1561;42.666;23.392;2022-12-07T06:43:05;59.20;;;31.37;;
3101;SDS011;1561;42.666;23.392;2022-12-07T06:45:37;47.10;;;28.13;;
3101;SDS011;1561;42.666;23.392;2022-12-07T06:48:11;62.30;;;29.60;;
3101;SDS011;1561;42.666;23.392;2022-12-07T06:50:43;55.70;;;31.60;;
3101;SDS011;1561;42.666;23.392;2022-12-07T06:53:20;66.93;;;34.60;;
3101;SDS011;1561;42.666;23.392;2022-12-07T06:55:50;65.77;;;36.57;;
3101;SDS011;1561;42.666;23.392;2022-12-07T06:58:18;60.40;;;33.53;;
3101;SDS011;1561;42.666;23.392;2022-12-07T07:00:57;58.37;;;30.73;;
3101;SDS011;1561;42.666;23.392;2022-12-07T07:03:28;49.30;;;29.70;;
3101;SDS011;1561;42.666;23.392;2022-12-07T07:06:11;59.40;;;31.20;;
3101;SDS011;1561;42.666;23.392;2022-12-07T07:11:47;63.00;;;32.70;;
3101;SDS011;1561;42.666;23.392;2022-12-07T07:14:28;59.67;;;35.07;;
3101;SDS011;1561;42.666;23.392;2022-12-07T07:16:56;62.20;;;33.80;;
3101;SDS011;1561;42.666;23.392;2022-12-07T07:20:02;58.23;;;31.90;;
3101;SDS011;1561;42.666;23.392;2022-12-07T07:22:40;52.23;;;33.07;;
3101;SDS011;1561;42.666;23.392;2022-12-07T07:25:08;58.23;;;32.80;;
3101;SDS011;1561;42.666;23.392;2022-12-07T07:27:41;57.67;;;32.23;;
3101;SDS011;1561;42.666;23.392;2022-12-07T07:30:10;52.30;;;32.30;;
3101;SDS011;1561;42.666;23.392;2022-12-07T07:32:55;57.90;;;33.10;;
3101;SDS011;1561;42.666;23.392;2022-12-07T07:35:26;55.63;;;32.87;;
3101;SDS011;1561;42.666;23.392;2022-12-07T07:37:56;69.17;;;38.00;;
3101;SDS011;1561;42.666;23.392;2022-12-07T07:40:24;57.37;;;34.80;;
3101;SDS011;1561;42.666;23.392;2022-12-07T07:42:56;64.63;;;35.67;;
3101;SDS011;1561;42.666;23.392;2022-12-07T07:45:26;82.50;;;46.23;;
3101;SDS011;1561;42.666;23.392;2022-12-07T07:47:54;86.03;;;49.90;;
3101;SDS011;1561;42.666;23.392;2022-12-07T07:50:37;85.33;;;46.80;;
3101;SDS011;1561;42.666;23.392;2022-12-07T07:53:24;67.63;;;40.97;;
3101;SDS011;1561;42.666;23.392;2022-12-07T07:55:58;59.37;;;37.60;;
3101;SDS011;1561;42.666;23.392;2022-12-07T08:01:57;53.20;;;33.60;;
3101;SDS011;1561;42.666;23.392;2022-12-07T08:04:28;58.37;;;36.67;;
3101;SDS011;1561;42.666;23.392;2022-12-07T08:06:56;55.43;;;34.83;;
3101;SDS011;1561;42.666;23.392;2022-12-07T08:09:25;54.63;;;35.13;;
3101;SDS011;1561;42.666;23.392;2022-12-07T08:11:51;50.97;;;31.33;;
3101;SDS011;1561;42.666;23.392;2022-12-07T08:14:20;52.97;;;31.97;;
3101;SDS011;1561;42.666;23.392;2022-12-07T08:16:46;58.67;;;32.30;;
3101;SDS011;1561;42.666;23.392;2022-12-07T08:19:14;46.53;;;28.17;;
3101;SDS011;1561;42.666;23.392;2022-12-07T08:21:41;44.30;;;28.73;;
3101;SDS011;1561;42.666;23.392;2022-12-07T08:24:12;46.43;;;31.27;;
3101;SDS011;1561;42.666;23.392;2022-12-07T08:26:40;50.73;;;30.97;;
3101;SDS011;1561;42.666;23.392;2022-12-07T08:29:08;48.77;;;30.47;;
3101;SDS011;1561;42.666;23.392;2022-12-07T08:31:46;52.50;;;31.13;;
3101;SDS011;1561;42.666;23.392;2022-12-07T08:34:13;44.53;;;32.13;;
3101;SDS011;1561;42.666;23.392;2022-12-07T08:36:40;50.23;;;31.97;;
3101;SDS011;1561;42.666;23.392;2022-12-07T08:39:08;48.70;;;30.30;;
3101;SDS011;1561;42.666;23.392;2022-12-07T08:41:35;47.33;;;30.80;;
3101;SDS011;1561;42.666;23.392;2022-12-07T08:44:02;39.33;;;28.40;;
3101;SDS011;1561;42.666;23.392;2022-12-07T08:46:30;46.70;;;30.33;;
3101;SDS011;1561;42.666;23.392;2022-12-07T08:49:03;53.27;;;32.07;;
3101;SDS011;1561;42.666;23.392;2022-12-07T08:51:34;43.67;;;30.13;;
3101;SDS011;1561;42.666;23.392;2022-12-07T08:54:02;47.33;;;28.60;;
3101;SDS011;1561;42.666;23.392;2022-12-07T08:56:33;36.67;;;28.90;;
3101;SDS011;1561;42.666;23.392;2022-12-07T08:59:01;38.87;;;27.60;;
3101;SDS011;1561;42.666;23.392;2022-12-07T09:01:29;43.33;;;30.10;;
3101;SDS011;1561;42.666;23.392;2022-12-07T09:03:58;44.47;;;30.13;;
3101;SDS011;1561;42.666;23.392;2022-12-07T09:06:27;48.37;;;28.90;;
3101;SDS011;1561;42.666;23.392;2022-12-07T09:08:55;43.00;;;29.33;;
3101;SDS011;1561;42.666;23.392;2022-12-07T09:11:27;39.87;;;26.90;;
3101;SDS011;1561;42.666;23.392;2022-12-07T09:13:54;47.43;;;29.90;;
3101;SDS011;1561;42.666;23.392;2022-12-07T09:16:22;49.83;;;29.90;;
3101;SDS011;1561;42.666;23.392;2022-12-07T09:18:49;45.23;;;30.37;;
3101;SDS011;1561;42.666;23.392;2022-12-07T09:21:23;40.57;;;28.40;;
3101;SDS011;1561;42.666;23.392;2022-12-07T09:23:54;44.57;;;29.03;;
3101;SDS011;1561;42.666;23.392;2022-12-07T09:26:21;47.17;;;32.10;;
3101;SDS011;1561;42.666;23.392;2022-12-07T09:28:49;44.60;;;29.70;;
3101;SDS011;1561;42.666;23.392;2022-12-07T09:31:19;43.63;;;28.60;;
3101;SDS011;1561;42.666;23.392;2022-12-07T09:33:46;46.70;;;27.20;;
3101;SDS011;1561;42.666;23.392;2022-12-07T09:36:14;45.60;;;28.00;;
3101;SDS011;1561;42.666;23.392;2022-12-07T09:38:41;35.43;;;24.17;;
3101;SDS011;1561;42.666;23.392;2022-12-07T09:41:10;59.40;;;28.63;;
3101;SDS011;1561;42.666;23.392;2022-12-07T09:43:37;40.73;;;24.83;;
3101;SDS011;1561;42.666;23.392;2022-12-07T09:46:06;34.57;;;24.17;;
3101;SDS011;1561;42.666;23.392;2022-12-07T09:48:39;38.50;;;25.20;;
3101;SDS011;1561;42.666;23.392;2022-12-07T09:51:12;37.20;;;22.97;;
3101;SDS011;1561;42.666;23.392;2022-12-07T09:53:43;41.07;;;23.63;;
3101;SDS011;1561;42.666;23.392;2022-12-07T09:56:12;41.10;;;22.77;;
3101;SDS011;1561;42.666;23.392;2022-12-07T09:58:40;32.17;;;21.90;;
3101;SDS011;1561;42.666;23.392;2022-12-07T10:01:10;39.47;;;23.40;;
3101;SDS011;1561;42.666;23.392;2022-12-07T10:03:39;34.47;;;22.13;;
3101;SDS011;1561;42.666;23.392;2022-12-07T10:06:10;41.77;;;24.20;;
3101;SDS011;1561;42.666;23.392;2022-12-07T10:08:39;36.37;;;23.90;;
3101;SDS011;1561;42.666;23.392;2022-12-07T10:11:10;32.10;;;22.63;;
3101;SDS011;1561;42.666;23.392;2022-12-07T10:13:41;35.90;;;24.17;;
3101;SDS011;1561;42.666;23.392;2022-12-07T10:16:25;35.00;;;22.47;;
3101;SDS011;1561;42.666;23.392;2022-12-07T10:19:18;32.63;;;22.30;;
3101;SDS011;1561;42.666;23.392;2022-12-07T10:24:38;30.90;;;20.33;;
3101;SDS011;1561;42.666;23.392;2022-12-07T10:27:16;37.43;;;22.40;;
3101;SDS011;1561;42.666;23.392;2022-12-07T10:29:58;35.70;;;21.87;;
3101;SDS011;1561;42.666;23.392;2022-12-07T10:32:42;40.13;;;25.53;;
3101;SDS011;1561;42.666;23.392;2022-12-07T10:35:18;39.50;;;23.27;;
3101;SDS011;1561;42.666;23.392;2022-12-07T10:37:49;36.70;;;23.33;;
3101;SDS011;1561;42.666;23.392;2022-12-07T10:40:25;39.83;;;24.13;;
3101;SDS011;1561;42.666;23.392;2022-12-07T10:48:44;36.13;;;20.50;;
3101;SDS011;1561;42.666;23.392;2022-12-07T10:51:24;35.40;;;22.40;;
3101;SDS011;1561;42.666;23.392;2022-12-07T10:53:59;32.13;;;20.70;;
3101;SDS011;1561;42.666;23.392;2022-12-07T10:59:47;32.53;;;20.57;;
3101;SDS011;1561;42.666;23.392;2022-12-07T11:02:31;32.77;;;21.30;;
3101;SDS011;1561;42.666;23.392;2022-12-07T11:05:18;34.23;;;20.97;;
3101;SDS011;1561;42.666;23.392;2022-12-07T11:07:56;38.20;;;21.47;;
3101;SDS011;1561;42.666;23.392;2022-12-07T11:10:31;35.73;;;20.90;;
3101;SDS011;1561;42.666;23.392;2022-12-07T11:16:19;26.53;;;15.00;;
3101;SDS011;1561;42.666;23.392;2022-12-07T11:18:59;21.83;;;13.47;;
3101;SDS011;1561;42.666;23.392;2022-12-07T11:21:51;22.13;;;11.90;;
3101;SDS011;1561;42.666;23.392;2022-12-07T11:24:26;27.77;;;12.47;;
3101;SDS011;1561;42.666;23.392;2022-12-07T11:27:31;20.23;;;11.23;;
3101;SDS011;1561;42.666;23.392;2022-12-07T11:30:13;25.33;;;14.67;;
3101;SDS011;1561;42.666;23.392;2022-12-07T11:32:50;17.73;;;12.20;;
3101;SDS011;1561;42.666;23.392;2022-12-07T11:38:20;20.07;;;13.10;;
3101;SDS011;1561;42.666;23.392;2022-12-07T11:40:53;19.87;;;13.33;;
3101;SDS011;1561;42.666;23.392;2022-12-07T11:43:47;20.70;;;13.90;;
3101;SDS011;1561;42.666;23.392;2022-12-07T11:46:20;23.23;;;15.00;;
3101;SDS011;1561;42.666;23.392;2022-12-07T11:48:57;29.33;;;17.50;;
3101;SDS011;1561;42.666;23.392;2022-12-07T11:51:30;25.07;;;16.37;;
3101;SDS011;1561;42.666;23.392;2022-12-07T11:54:03;26.23;;;17.50;;
3101;SDS011;1561;42.666;23.392;2022-12-07T11:56:39;26.63;;;17.50;;
3101;SDS011;1561;42.666;23.392;2022-12-07T11:59:08;25.20;;;18.00;;
3101;SDS011;1561;42.666;23.392;2022-12-07T12:01:50;29.70;;;16.67;;
3101;SDS011;1561;42.666;23.392;2022-12-07T12:04:26;27.00;;;16.90;;
3101;SDS011;1561;42.666;23.392;2022-12-07T12:07:10;24.97;;;15.67;;
3101;SDS011;1561;42.666;23.392;2022-12-07T12:09:45;28.13;;;16.80;;
3101;SDS011;1561;42.666;23.392;2022-12-07T12:15:37;32.00;;;16.90;;
3101;SDS011;1561;42.666;23.392;2022-12-07T12:18:18;29.67;;;16.70;;
3101;SDS011;1561;42.666;23.392;2022-12-07T12:21:04;27.30;;;16.33;;
3101;SDS011;1561;42.666;23.392;2022-12-07T12:23:42;26.77;;;17.13;;
3101;SDS011;1561;42.666;23.392;2022-12-07T12:26:14;36.37;;;19.00;;
3101;SDS011;1561;42.666;23.392;2022-12-07T12:28:52;26.50;;;17.43;;
3101;SDS011;1561;42.666;23.392;2022-12-07T12:31:32;35.77;;;20.17;;
3101;SDS011;1561;42.666;23.392;2022-12-07T12:34:04;32.03;;;20.30;;
3101;SDS011;1561;42.666;23.392;2022-12-07T12:36:47;28.83;;;18.33;;
3101;SDS011;1561;42.666;23.392;2022-12-07T12:39:18;36.33;;;20.10;;
3101;SDS011;1561;42.666;23.392;2022-12-07T12:41:57;39.13;;;17.67;;
3101;SDS011;1561;42.666;23.392;2022-12-07T12:44:41;29.63;;;18.67;;
3101;SDS011;1561;42.666;23.392;2022-12-07T12:50:31;24.53;;;16.00;;
3101;SDS011;1561;42.666;23.392;2022-12-07T12:53:04;25.37;;;16.80;;
3101;SDS011;1561;42.666;23.392;2022-12-07T12:55:54;27.23;;;16.53;;
3101;SDS011;1561;42.666;23.392;2022-12-07T12:58:46;30.73;;;16.53;;
3101;SDS011;1561;42.666;23.392;2022-12-07T13:07:12;23.93;;;12.93;;
3101;SDS011;1561;42.666;23.392;2022-12-07T13:10:00;27.97;;;18.20;;
3101;SDS011;1561;42.666;23.392;2022-12-07T13:12:35;25.50;;;12.87;;
3101;SDS011;1561;42.666;23.392;2022-12-07T13:15:22;18.20;;;11.80;;
3101;SDS011;1561;42.666;23.392;2022-12-07T13:18:14;21.47;;;14.00;;
3101;SDS011;1561;42.666;23.392;2022-12-07T13:20:55;23.47;;;14.80;;
3101;SDS011;1561;42.666;23.392;2022-12-07T13:23:26;21.40;;;13.50;;
3101;SDS011;1561;42.666;23.392;2022-12-07T13:26:05;24.47;;;14.97;;
3101;SDS011;1561;42.666;23.392;2022-12-07T13:28:44;23.97;;;13.87;;
3101;SDS011;1561;42.666;23.392;2022-12-07T13:31:19;23.27;;;15.60;;
3101;SDS011;1561;42.666;23.392;2022-12-07T13:33:59;25.80;;;15.13;;
3101;SDS011;1561;42.666;23.392;2022-12-07T13:36:29;22.73;;;15.07;;
3101;SDS011;1561;42.666;23.392;2022-12-07T13:39:10;26.93;;;14.07;;
3101;SDS011;1561;42.666;23.392;2022-12-07T13:41:43;24.87;;;14.67;;
3101;SDS011;1561;42.666;23.392;2022-12-07T13:44:18;36.47;;;15.67;;
3101;SDS011;1561;42.666;23.392;2022-12-07T13:46:52;19.10;;;14.10;;
3101;SDS011;1561;42.666;23.392;2022-12-07T13:49:27;22.87;;;13.80;;
3101;SDS011;1561;42.666;23.392;2022-12-07T13:52:06;16.03;;;12.60;;
3101;SDS011;1561;42.666;23.392;2022-12-07T13:54:43;25.80;;;12.90;;
3101;SDS011;1561;42.666;23.392;2022-12-07T13:57:14;23.30;;;15.20;;
3101;SDS011;1561;42.666;23.392;2022-12-07T13:59:42;28.73;;;15.37;;
3101;SDS011;1561;42.666;23.392;2022-12-07T14:02:17;27.90;;;15.90;;
3101;SDS011;1561;42.666;23.392;2022-12-07T14:04:50;33.80;;;19.00;;
3101;SDS011;1561;42.666;23.392;2022-12-07T14:07:20;19.93;;;14.00;;
3101;SDS011;1561;42.666;23.392;2022-12-07T14:09:55;20.80;;;13.30;;
3101;SDS011;1561;42.666;23.392;2022-12-07T14:12:27;22.50;;;13.03;;
3101;SDS011;1561;42.666;23.392;2022-12-07T14:14:58;31.17;;;14.97;;
3101;SDS011;1561;42.666;23.392;2022-12-07T14:17:27;24.90;;;14.73;;
3101;SDS011;1561;42.666;23.392;2022-12-07T14:19:56;22.37;;;13.80;;
3101;SDS011;1561;42.666;23.392;2022-12-07T14:25:17;29.00;;;14.83;;
3101;SDS011;1561;42.666;23.392;2022-12-07T14:27:54;24.70;;;14.17;;
3101;SDS011;1561;42.666;23.392;2022-12-07T14:30:26;20.80;;;14.80;;
3101;SDS011;1561;42.666;23.392;2022-12-07T14:32:55;24.23;;;13.20;;
3101;SDS011;1561;42.666;23.392;2022-12-07T14:35:26;23.93;;;15.53;;
3101;SDS011;1561;42.666;23.392;2022-12-07T14:37:58;25.77;;;14.30;;
3101;SDS011;1561;42.666;23.392;2022-12-07T14:40:26;31.07;;;15.43;;
3101;SDS011;1561;42.666;23.392;2022-12-07T14:42:54;24.30;;;15.23;;
3101;SDS011;1561;42.666;23.392;2022-12-07T14:45:27;26.40;;;16.60;;
3101;SDS011;1561;42.666;23.392;2022-12-07T14:47:55;25.70;;;16.10;;
3101;SDS011;1561;42.666;23.392;2022-12-07T14:50:24;29.07;;;17.10;;
3101;SDS011;1561;42.666;23.392;2022-12-07T14:52:51;27.27;;;15.90;;
3101;SDS011;1561;42.666;23.392;2022-12-07T14:55:25;35.73;;;18.43;;
3101;SDS011;1561;42.666;23.392;2022-12-07T14:57:53;43.67;;;20.27;;
3101;SDS011;1561;42.666;23.392;2022-12-07T15:00:21;33.53;;;18.27;;
3101;SDS011;1561;42.666;23.392;2022-12-07T15:02:51;41.23;;;24.13;;
3101;SDS011;1561;42.666;23.392;2022-12-07T15:05:21;46.70;;;20.47;;
3101;SDS011;1561;42.666;23.392;2022-12-07T15:07:56;53.00;;;27.37;;
3101;SDS011;1561;42.666;23.392;2022-12-07T15:10:24;41.83;;;23.00;;
3101;SDS011;1561;42.666;23.392;2022-12-07T15:12:56;40.93;;;20.70;;
3101;SDS011;1561;42.666;23.392;2022-12-07T15:15:44;36.43;;;20.40;;
3101;SDS011;1561;42.666;23.392;2022-12-07T15:18:16;38.33;;;22.50;;
3101;SDS011;1561;42.666;23.392;2022-12-07T15:20:43;32.83;;;19.70;;
3101;SDS011;1561;42.666;23.392;2022-12-07T15:23:16;67.97;;;24.57;;
3101;SDS011;1561;42.666;23.392;2022-12-07T15:25:46;43.40;;;25.37;;
3101;SDS011;1561;42.666;23.392;2022-12-07T15:28:15;60.60;;;25.40;;
3101;SDS011;1561;42.666;23.392;2022-12-07T15:30:43;41.93;;;22.30;;
3101;SDS011;1561;42.666;23.392;2022-12-07T15:33:18;48.30;;;24.10;;
3101;SDS011;1561;42.666;23.392;2022-12-07T15:35:46;61.40;;;25.57;;
3101;SDS011;1561;42.666;23.392;2022-12-07T15:38:14;52.53;;;27.50;;
3101;SDS011;1561;42.666;23.392;2022-12-07T15:40:46;60.87;;;28.30;;
3101;SDS011;1561;42.666;23.392;2022-12-07T15:43:13;65.97;;;28.53;;
3101;SDS011;1561;42.666;23.392;2022-12-07T15:45:55;54.03;;;26.93;;
3101;SDS011;1561;42.666;23.392;2022-12-07T15:48:24;64.40;;;28.50;;
3101;SDS011;1561;42.666;23.392;2022-12-07T15:50:52;78.43;;;31.50;;
3101;SDS011;1561;42.666;23.392;2022-12-07T15:53:35;73.77;;;28.87;;
3101;SDS011;1561;42.666;23.392;2022-12-07T15:56:05;77.17;;;33.07;;
3101;SDS011;1561;42.666;23.392;2022-12-07T15:58:35;76.00;;;31.40;;
3101;SDS011;1561;42.666;23.392;2022-12-07T16:01:09;63.37;;;29.90;;